YPKU

East Kimberley Regional Airport

Airport
ICAO code
YPKU
IATA Code
KNX
Summary
ICAO Region
APAC
ICAO Territory
Location

Kununurra, Western Australia

Serving
Kununurra
Elevation
145 ft
Coordinates
15° 46' 41" S , 128° 42' 34" E
Metar
Observation
YPKU 100100Z AUTO 18005KT 9999 // NCD 29/10 Q1014 RF00.0/000.0
Station
Kununurra Kununurra Aws
Date/Time
2022-08-10 01:00:00
Wind direction
180°
Wind speed
05 kts
Lowest cloud amount
no clouds detected
Temperature
29°C
Dew point
10°C
Humidity
30%
QNH
1014 hPa
Weather condition
n/a

Kununurra Airport is an airport in Kununurra, Western Australia. The airport is 2.5 km from the town centre.

Airport map

Aerial View

SKYbrary Partners:

Safety knowledge contributed by: